TimeMST,TemperatureF,Dew PointF,Humidity,Sea Level PressureIn,VisibilityMPH,Wind Direction,Wind SpeedMPH,Gust SpeedMPH,PrecipitationIn,Events,Conditions,WindDirDegrees,DateUTC
12:53 AM,19.9,15.1,81,30.40,10.0,Calm,Calm,-,N/A,,Clear,0,2012-11-14 07:53:00
1:53 AM,21.9,15.1,75,30.35,10.0,Calm,Calm,-,N/A,,Clear,0,2012-11-14 08:53:00
2:53 AM,17.1,12.9,84,30.39,10.0,Calm,Calm,-,N/A,,Clear,0,2012-11-14 09:53:00
3:53 AM,18.0,12.9,81,30.38,10.0,Calm,Calm,-,N/A,,Clear,0,2012-11-14 10:53:00
4:53 AM,16.0,12.0,84,30.44,10.0,Calm,Calm,-,N/A,,Clear,0,2012-11-14 11:53:00
5:53 AM,12.9,9.0,84,30.53,10.0,Calm,Calm,-,N/A,,Clear,0,2012-11-14 12:53:00
6:53 AM,12.9,9.0,84,30.57,10.0,Calm,Calm,-,N/A,,Clear,0,2012-11-14 13:53:00
7:53 AM,19.9,16.0,85,30.55,10.0,Calm,Calm,-,N/A,,Clear,0,2012-11-14 14:53:00
8:53 AM,30.9,19.0,61,30.48,10.0,NE,4.6,-,N/A,,Clear,40,2012-11-14 15:53:00
9:53 AM,36.0,19.0,50,30.44,10.0,Calm,Calm,-,N/A,,Clear,0,2012-11-14 16:53:00
10:53 AM,41.0,21.0,45,30.40,10.0,Calm,Calm,-,N/A,,Clear,0,2012-11-14 17:53:00
11:53 AM,48.0,21.9,36,30.33,10.0,West,4.6,-,N/A,,Clear,260,2012-11-14 18:53:00
12:53 PM,52.0,17.1,25,30.28,10.0,WNW,4.6,-,N/A,,Clear,300,2012-11-14 19:53:00
1:53 PM,55.0,18.0,23,30.22,10.0,NW,6.9,-,N/A,,Clear,320,2012-11-14 20:53:00
2:53 PM,55.9,14.0,19,30.22,10.0,WSW,4.6,-,N/A,,Clear,250,2012-11-14 21:53:00
3:53 PM,55.0,12.0,18,30.22,10.0,SSW,4.6,-,N/A,,Clear,200,2012-11-14 22:53:00
4:53 PM,48.0,19.9,33,30.29,10.0,ENE,3.5,-,N/A,,Clear,60,2012-11-14 23:53:00
5:53 PM,41.0,21.0,45,30.37,10.0,Calm,Calm,-,N/A,,Clear,0,2012-11-15 00:53:00
6:53 PM,35.1,21.9,59,30.42,10.0,WSW,4.6,-,N/A,,Clear,250,2012-11-15 01:53:00
7:53 PM,33.1,21.0,61,30.38,10.0,Calm,Calm,-,N/A,,Clear,0,2012-11-15 02:53:00
8:53 PM,28.9,19.9,69,30.35,10.0,East,3.5,-,N/A,,Clear,80,2012-11-15 03:53:00
9:53 PM,26.1,19.9,78,30.35,10.0,Calm,Calm,-,N/A,,Clear,0,2012-11-15 04:53:00
10:53 PM,25.0,19.9,81,30.32,10.0,Calm,Calm,-,N/A,,Clear,0,2012-11-15 05:53:00
11:53 PM,25.0,19.9,81,30.26,10.0,Calm,Calm,-,N/A,,Clear,0,2012-11-15 06:53:00